sensor_id;sensor_type;location;lat;lon;timestamp;P1;durP1;ratioP1;P2;durP2;ratioP2
34035;SDS011;63481;52.588;22.472;2022-10-31T00:00:26;26.80;;;15.48;;
34035;SDS011;63481;52.588;22.472;2022-10-31T00:00:59;22.42;;;14.05;;
34035;SDS011;63481;52.588;22.472;2022-10-31T00:01:35;21.07;;;14.68;;
34035;SDS011;63481;52.588;22.472;2022-10-31T00:02:08;20.50;;;13.00;;
34035;SDS011;63481;52.588;22.472;2022-10-31T00:02:40;79.45;;;13.55;;
34035;SDS011;63481;52.588;22.472;2022-10-31T00:03:12;24.07;;;11.90;;
34035;SDS011;63481;52.588;22.472;2022-10-31T00:03:44;20.72;;;12.65;;
34035;SDS011;63481;52.588;22.472;2022-10-31T00:04:15;19.60;;;12.88;;
34035;SDS011;63481;52.588;22.472;2022-10-31T00:04:47;17.95;;;12.33;;
34035;SDS011;63481;52.588;22.472;2022-10-31T00:05:19;21.93;;;13.72;;
34035;SDS011;63481;52.588;22.472;2022-10-31T00:05:51;19.57;;;11.80;;
34035;SDS011;63481;52.588;22.472;2022-10-31T00:06:24;22.02;;;13.32;;
34035;SDS011;63481;52.588;22.472;2022-10-31T00:06:56;21.30;;;12.53;;
34035;SDS011;63481;52.588;22.472;2022-10-31T00:07:27;25.70;;;12.58;;
34035;SDS011;63481;52.588;22.472;2022-10-31T00:07:59;19.25;;;11.38;;
34035;SDS011;63481;52.588;22.472;2022-10-31T00:08:31;19.48;;;11.12;;
34035;SDS011;63481;52.588;22.472;2022-10-31T00:09:03;18.35;;;10.25;;
34035;SDS011;63481;52.588;22.472;2022-10-31T00:09:35;20.17;;;9.43;;
34035;SDS011;63481;52.588;22.472;2022-10-31T00:10:07;25.32;;;10.98;;
34035;SDS011;63481;52.588;22.472;2022-10-31T00:10:40;24.55;;;11.90;;
34035;SDS011;63481;52.588;22.472;2022-10-31T00:11:12;19.75;;;11.85;;
34035;SDS011;63481;52.588;22.472;2022-10-31T00:11:44;15.63;;;9.80;;
34035;SDS011;63481;52.588;22.472;2022-10-31T00:12:15;15.60;;;10.72;;
34035;SDS011;63481;52.588;22.472;2022-10-31T00:12:48;19.05;;;10.95;;
34035;SDS011;63481;52.588;22.472;2022-10-31T00:13:19;13.90;;;8.93;;
34035;SDS011;63481;52.588;22.472;2022-10-31T00:13:51;23.65;;;9.65;;
34035;SDS011;63481;52.588;22.472;2022-10-31T00:14:23;50.12;;;9.98;;
34035;SDS011;63481;52.588;22.472;2022-10-31T00:14:55;56.23;;;9.65;;
34035;SDS011;63481;52.588;22.472;2022-10-31T00:15:27;12.20;;;8.40;;
34035;SDS011;63481;52.588;22.472;2022-10-31T00:15:59;16.87;;;8.75;;
34035;SDS011;63481;52.588;22.472;2022-10-31T00:16:30;11.48;;;8.05;;
34035;SDS011;63481;52.588;22.472;2022-10-31T00:17:02;13.83;;;8.28;;
34035;SDS011;63481;52.588;22.472;2022-10-31T00:17:34;133.15;;;11.88;;
34035;SDS011;63481;52.588;22.472;2022-10-31T00:18:07;119.02;;;11.00;;
34035;SDS011;63481;52.588;22.472;2022-10-31T00:18:40;88.85;;;10.35;;
34035;SDS011;63481;52.588;22.472;2022-10-31T00:19:12;20.43;;;6.85;;
34035;SDS011;63481;52.588;22.472;2022-10-31T00:19:43;11.70;;;7.30;;
34035;SDS011;63481;52.588;22.472;2022-10-31T00:20:15;90.22;;;9.50;;
34035;SDS011;63481;52.588;22.472;2022-10-31T00:20:47;117.75;;;10.88;;
34035;SDS011;63481;52.588;22.472;2022-10-31T00:21:19;75.22;;;6.75;;
34035;SDS011;63481;52.588;22.472;2022-10-31T00:21:51;244.22;;;14.38;;
34035;SDS011;63481;52.588;22.472;2022-10-31T00:22:23;11.93;;;5.75;;
34035;SDS011;63481;52.588;22.472;2022-10-31T00:22:59;90.90;;;10.38;;
34035;SDS011;63481;52.588;22.472;2022-10-31T00:23:32;359.85;;;17.07;;
34035;SDS011;63481;52.588;22.472;2022-10-31T00:24:03;75.87;;;8.35;;
34035;SDS011;63481;52.588;22.472;2022-10-31T00:24:36;15.98;;;6.33;;
34035;SDS011;63481;52.588;22.472;2022-10-31T00:25:08;266.23;;;14.15;;
34035;SDS011;63481;52.588;22.472;2022-10-31T00:25:39;7.67;;;4.78;;
34035;SDS011;63481;52.588;22.472;2022-10-31T00:26:11;11.50;;;5.35;;
34035;SDS011;63481;52.588;22.472;2022-10-31T00:26:43;98.12;;;8.43;;
34035;SDS011;63481;52.588;22.472;2022-10-31T00:27:15;88.78;;;8.35;;
34035;SDS011;63481;52.588;22.472;2022-10-31T00:27:47;8.98;;;5.30;;
34035;SDS011;63481;52.588;22.472;2022-10-31T00:28:18;15.30;;;7.95;;
34035;SDS011;63481;52.588;22.472;2022-10-31T00:28:50;14.33;;;9.30;;
34035;SDS011;63481;52.588;22.472;2022-10-31T00:29:22;13.08;;;6.40;;
34035;SDS011;63481;52.588;22.472;2022-10-31T00:29:54;11.35;;;6.90;;
34035;SDS011;63481;52.588;22.472;2022-10-31T00:30:25;11.00;;;6.70;;
34035;SDS011;63481;52.588;22.472;2022-10-31T00:30:58;10.32;;;5.40;;
34035;SDS011;63481;52.588;22.472;2022-10-31T00:31:31;11.35;;;5.03;;
34035;SDS011;63481;52.588;22.472;2022-10-31T00:32:04;9.23;;;5.72;;
34035;SDS011;63481;52.588;22.472;2022-10-31T00:32:36;9.85;;;5.65;;
34035;SDS011;63481;52.588;22.472;2022-10-31T00:33:07;10.82;;;5.97;;
34035;SDS011;63481;52.588;22.472;2022-10-31T00:33:40;12.75;;;8.15;;
34035;SDS011;63481;52.588;22.472;2022-10-31T00:34:12;14.30;;;8.60;;
34035;SDS011;63481;52.588;22.472;2022-10-31T00:34:44;24.87;;;9.33;;
34035;SDS011;63481;52.588;22.472;2022-10-31T00:35:15;58.78;;;9.75;;
34035;SDS011;63481;52.588;22.472;2022-10-31T00:35:51;54.13;;;11.97;;
34035;SDS011;63481;52.588;22.472;2022-10-31T00:36:23;77.92;;;14.10;;
34035;SDS011;63481;52.588;22.472;2022-10-31T00:36:54;130.32;;;16.62;;
34035;SDS011;63481;52.588;22.472;2022-10-31T00:37:26;123.87;;;15.72;;
34035;SDS011;63481;52.588;22.472;2022-10-31T00:37:58;24.77;;;4.58;;
34035;SDS011;63481;52.588;22.472;2022-10-31T00:38:30;32.50;;;6.85;;
34035;SDS011;63481;52.588;22.472;2022-10-31T00:39:02;56.53;;;7.20;;
34035;SDS011;63481;52.588;22.472;2022-10-31T00:39:34;122.47;;;11.68;;
34035;SDS011;63481;52.588;22.472;2022-10-31T00:40:06;53.80;;;9.18;;
34035;SDS011;63481;52.588;22.472;2022-10-31T00:40:39;85.62;;;7.20;;
34035;SDS011;63481;52.588;22.472;2022-10-31T00:41:11;75.55;;;5.95;;
34035;SDS011;63481;52.588;22.472;2022-10-31T00:41:45;103.97;;;7.50;;
34035;SDS011;63481;52.588;22.472;2022-10-31T00:42:17;100.85;;;6.62;;
34035;SDS011;63481;52.588;22.472;2022-10-31T00:42:49;90.12;;;5.47;;
34035;SDS011;63481;52.588;22.472;2022-10-31T00:43:21;81.02;;;7.15;;
34035;SDS011;63481;52.588;22.472;2022-10-31T00:43:53;91.92;;;8.83;;
34035;SDS011;63481;52.588;22.472;2022-10-31T00:44:25;186.20;;;7.78;;
34035;SDS011;63481;52.588;22.472;2022-10-31T00:44:57;223.47;;;11.00;;
34035;SDS011;63481;52.588;22.472;2022-10-31T00:45:29;203.67;;;9.60;;
34035;SDS011;63481;52.588;22.472;2022-10-31T00:46:01;296.60;;;11.05;;
34035;SDS011;63481;52.588;22.472;2022-10-31T00:46:32;94.90;;;7.65;;
34035;SDS011;63481;52.588;22.472;2022-10-31T00:47:04;53.73;;;7.33;;
34035;SDS011;63481;52.588;22.472;2022-10-31T00:47:36;53.73;;;8.20;;
34035;SDS011;63481;52.588;22.472;2022-10-31T00:48:08;101.70;;;9.55;;
34035;SDS011;63481;52.588;22.472;2022-10-31T00:48:41;85.42;;;9.00;;
34035;SDS011;63481;52.588;22.472;2022-10-31T00:49:13;48.28;;;8.70;;
34035;SDS011;63481;52.588;22.472;2022-10-31T00:49:45;21.87;;;7.90;;
34035;SDS011;63481;52.588;22.472;2022-10-31T00:50:16;23.77;;;6.45;;
34035;SDS011;63481;52.588;22.472;2022-10-31T00:50:48;52.50;;;6.87;;
34035;SDS011;63481;52.588;22.472;2022-10-31T00:51:20;94.37;;;8.20;;
34035;SDS011;63481;52.588;22.472;2022-10-31T00:51:52;129.82;;;9.73;;
34035;SDS011;63481;52.588;22.472;2022-10-31T00:52:23;91.32;;;7.50;;
34035;SDS011;63481;52.588;22.472;2022-10-31T00:52:55;82.70;;;7.60;;
34035;SDS011;63481;52.588;22.472;2022-10-31T00:53:28;44.70;;;6.45;;
34035;SDS011;63481;52.588;22.472;2022-10-31T00:54:00;35.75;;;6.67;;
34035;SDS011;63481;52.588;22.472;2022-10-31T00:54:32;18.73;;;11.18;;
34035;SDS011;63481;52.588;22.472;2022-10-31T00:55:04;21.48;;;12.47;;
34035;SDS011;63481;52.588;22.472;2022-10-31T00:55:36;19.95;;;12.07;;
34035;SDS011;63481;52.588;22.472;2022-10-31T00:56:07;25.00;;;15.32;;
34035;SDS011;63481;52.588;22.472;2022-10-31T00:56:39;19.92;;;13.03;;
34035;SDS011;63481;52.588;22.472;2022-10-31T00:57:11;24.75;;;14.70;;
34035;SDS011;63481;52.588;22.472;2022-10-31T00:57:45;34.10;;;17.37;;
34035;SDS011;63481;52.588;22.472;2022-10-31T00:58:19;36.23;;;17.25;;
34035;SDS011;63481;52.588;22.472;2022-10-31T00:58:51;23.52;;;16.15;;
34035;SDS011;63481;52.588;22.472;2022-10-31T00:59:24;18.52;;;9.53;;
34035;SDS011;63481;52.588;22.472;2022-10-31T00:59:56;7.40;;;4.17;;
34035;SDS011;63481;52.588;22.472;2022-10-31T01:00:28;22.73;;;14.38;;
34035;SDS011;63481;52.588;22.472;2022-10-31T01:01:00;28.85;;;15.93;;
34035;SDS011;63481;52.588;22.472;2022-10-31T01:01:32;22.32;;;15.58;;
34035;SDS011;63481;52.588;22.472;2022-10-31T01:02:04;11.60;;;5.58;;
34035;SDS011;63481;52.588;22.472;2022-10-31T01:02:35;10.70;;;5.08;;
34035;SDS011;63481;52.588;22.472;2022-10-31T01:03:07;10.40;;;5.60;;
34035;SDS011;63481;52.588;22.472;2022-10-31T01:03:41;8.33;;;4.90;;
34035;SDS011;63481;52.588;22.472;2022-10-31T01:04:14;10.75;;;4.85;;
34035;SDS011;63481;52.588;22.472;2022-10-31T01:04:46;8.40;;;4.60;;
34035;SDS011;63481;52.588;22.472;2022-10-31T01:05:18;6.95;;;4.22;;
34035;SDS011;63481;52.588;22.472;2022-10-31T01:06:00;10.55;;;5.55;;
34035;SDS011;63481;52.588;22.472;2022-10-31T01:06:37;34.75;;;7.30;;
34035;SDS011;63481;52.588;22.472;2022-10-31T01:07:09;60.75;;;9.08;;
34035;SDS011;63481;52.588;22.472;2022-10-31T01:07:42;142.80;;;8.85;;
34035;SDS011;63481;52.588;22.472;2022-10-31T01:08:14;31.27;;;8.25;;
34035;SDS011;63481;52.588;22.472;2022-10-31T01:08:47;38.30;;;7.00;;
34035;SDS011;63481;52.588;22.472;2022-10-31T01:09:19;205.75;;;14.03;;
34035;SDS011;63481;52.588;22.472;2022-10-31T01:09:51;62.60;;;9.50;;
34035;SDS011;63481;52.588;22.472;2022-10-31T01:10:24;28.80;;;11.03;;
34035;SDS011;63481;52.588;22.472;2022-10-31T01:11:40;21.77;;;11.48;;
34035;SDS011;63481;52.588;22.472;2022-10-31T01:12:13;19.55;;;11.25;;
34035;SDS011;63481;52.588;22.472;2022-10-31T01:12:46;35.17;;;10.60;;
34035;SDS011;63481;52.588;22.472;2022-10-31T01:13:19;41.18;;;9.45;;
34035;SDS011;63481;52.588;22.472;2022-10-31T01:13:52;19.95;;;10.32;;
34035;SDS011;63481;52.588;22.472;2022-10-31T01:14:24;17.73;;;9.53;;
34035;SDS011;63481;52.588;22.472;2022-10-31T01:14:56;20.57;;;11.65;;
34035;SDS011;63481;52.588;22.472;2022-10-31T01:15:28;20.92;;;11.97;;
34035;SDS011;63481;52.588;22.472;2022-10-31T01:16:00;19.60;;;11.93;;
34035;SDS011;63481;52.588;22.472;2022-10-31T01:16:33;248.10;;;19.20;;
34035;SDS011;63481;52.588;22.472;2022-10-31T01:17:05;575.90;;;32.98;;
34035;SDS011;63481;52.588;22.472;2022-10-31T01:17:37;250.50;;;15.50;;
34035;SDS011;63481;52.588;22.472;2022-10-31T01:18:09;377.45;;;19.27;;
34035;SDS011;63481;52.588;22.472;2022-10-31T01:18:41;125.65;;;11.65;;
34035;SDS011;63481;52.588;22.472;2022-10-31T01:19:12;256.35;;;15.50;;
34035;SDS011;63481;52.588;22.472;2022-10-31T01:19:44;218.00;;;14.07;;
34035;SDS011;63481;52.588;22.472;2022-10-31T01:20:16;82.30;;;8.60;;
34035;SDS011;63481;52.588;22.472;2022-10-31T01:20:56;149.75;;;12.95;;
34035;SDS011;63481;52.588;22.472;2022-10-31T01:21:30;110.60;;;13.95;;
34035;SDS011;63481;52.588;22.472;2022-10-31T01:22:05;73.25;;;14.30;;
34035;SDS011;63481;52.588;22.472;2022-10-31T01:22:37;426.90;;;28.17;;
34035;SDS011;63481;52.588;22.472;2022-10-31T01:23:08;241.12;;;22.48;;
34035;SDS011;63481;52.588;22.472;2022-10-31T01:23:40;285.93;;;21.60;;
34035;SDS011;63481;52.588;22.472;2022-10-31T01:24:13;245.78;;;20.05;;
34035;SDS011;63481;52.588;22.472;2022-10-31T01:24:44;264.93;;;21.73;;
34035;SDS011;63481;52.588;22.472;2022-10-31T01:25:16;220.82;;;17.82;;
34035;SDS011;63481;52.588;22.472;2022-10-31T01:25:48;211.82;;;18.82;;
34035;SDS011;63481;52.588;22.472;2022-10-31T01:26:24;346.50;;;26.00;;
34035;SDS011;63481;52.588;22.472;2022-10-31T01:26:58;416.48;;;35.75;;
34035;SDS011;63481;52.588;22.472;2022-10-31T01:27:30;172.55;;;22.87;;
34035;SDS011;63481;52.588;22.472;2022-10-31T01:28:03;53.30;;;17.42;;
34035;SDS011;63481;52.588;22.472;2022-10-31T01:28:42;42.30;;;18.67;;
34035;SDS011;63481;52.588;22.472;2022-10-31T01:29:09;33.00;;;16.07;;
34035;SDS011;63481;52.588;22.472;2022-10-31T01:29:41;27.62;;;12.73;;
34035;SDS011;63481;52.588;22.472;2022-10-31T01:30:13;22.65;;;12.93;;
34035;SDS011;63481;52.588;22.472;2022-10-31T01:30:45;31.02;;;15.98;;
34035;SDS011;63481;52.588;22.472;2022-10-31T01:31:18;34.00;;;16.52;;
34035;SDS011;63481;52.588;22.472;2022-10-31T01:31:51;25.95;;;13.58;;
34035;SDS011;63481;52.588;22.472;2022-10-31T01:32:23;17.12;;;8.18;;
34035;SDS011;63481;52.588;22.472;2022-10-31T01:32:56;25.48;;;14.58;;
34035;SDS011;63481;52.588;22.472;2022-10-31T01:33:28;28.38;;;14.80;;
34035;SDS011;63481;52.588;22.472;2022-10-31T01:34:00;26.65;;;15.28;;
34035;SDS011;63481;52.588;22.472;2022-10-31T01:34:32;24.57;;;14.33;;
34035;SDS011;63481;52.588;22.472;2022-10-31T01:35:06;26.10;;;14.93;;
34035;SDS011;63481;52.588;22.472;2022-10-31T01:35:38;27.15;;;16.05;;
34035;SDS011;63481;52.588;22.472;2022-10-31T01:36:52;37.67;;;15.72;;
34035;SDS011;63481;52.588;22.472;2022-10-31T01:37:26;116.45;;;20.43;;
34035;SDS011;63481;52.588;22.472;2022-10-31T01:37:57;74.55;;;19.82;;
34035;SDS011;63481;52.588;22.472;2022-10-31T01:38:29;76.75;;;17.67;;
34035;SDS011;63481;52.588;22.472;2022-10-31T01:39:10;29.42;;;12.50;;
34035;SDS011;63481;52.588;22.472;2022-10-31T01:39:39;133.22;;;15.72;;
34035;SDS011;63481;52.588;22.472;2022-10-31T01:40:11;87.67;;;13.48;;
34035;SDS011;63481;52.588;22.472;2022-10-31T01:40:43;133.25;;;15.20;;
34035;SDS011;63481;52.588;22.472;2022-10-31T01:41:16;106.67;;;13.75;;
34035;SDS011;63481;52.588;22.472;2022-10-31T01:41:51;60.65;;;11.97;;
34035;SDS011;63481;52.588;22.472;2022-10-31T01:42:23;81.00;;;13.25;;
34035;SDS011;63481;52.588;22.472;2022-10-31T01:42:55;51.98;;;10.80;;
34035;SDS011;63481;52.588;22.472;2022-10-31T01:45:01;59.85;;;10.03;;
34035;SDS011;63481;52.588;22.472;2022-10-31T01:45:31;24.30;;;8.95;;
34035;SDS011;63481;52.588;22.472;2022-10-31T01:46:03;64.65;;;10.20;;
34035;SDS011;63481;52.588;22.472;2022-10-31T01:46:38;46.33;;;9.88;;
34035;SDS011;63481;52.588;22.472;2022-10-31T01:47:14;54.93;;;10.10;;
34035;SDS011;63481;52.588;22.472;2022-10-31T01:47:48;29.67;;;9.43;;
34035;SDS011;63481;52.588;22.472;2022-10-31T01:48:23;56.70;;;12.15;;
34035;SDS011;63481;52.588;22.472;2022-10-31T01:48:57;98.47;;;12.73;;
34035;SDS011;63481;52.588;22.472;2022-10-31T01:50:37;69.37;;;11.12;;
34035;SDS011;63481;52.588;22.472;2022-10-31T01:51:08;127.12;;;14.38;;
34035;SDS011;63481;52.588;22.472;2022-10-31T01:51:47;136.28;;;12.80;;
34035;SDS011;63481;52.588;22.472;2022-10-31T01:52:57;43.38;;;10.23;;
34035;SDS011;63481;52.588;22.472;2022-10-31T01:53:31;66.37;;;10.20;;
34035;SDS011;63481;52.588;22.472;2022-10-31T01:54:07;66.00;;;10.70;;
34035;SDS011;63481;52.588;22.472;2022-10-31T01:54:42;66.67;;;11.80;;
34035;SDS011;63481;52.588;22.472;2022-10-31T01:55:30;51.75;;;10.65;;
34035;SDS011;63481;52.588;22.472;2022-10-31T01:56:00;85.07;;;11.35;;
34035;SDS011;63481;52.588;22.472;2022-10-31T01:56:32;85.80;;;12.58;;
34035;SDS011;63481;52.588;22.472;2022-10-31T01:57:06;63.35;;;12.05;;
34035;SDS011;63481;52.588;22.472;2022-10-31T01:57:42;130.30;;;14.38;;
34035;SDS011;63481;52.588;22.472;2022-10-31T01:58:20;56.85;;;11.18;;
34035;SDS011;63481;52.588;22.472;2022-10-31T01:58:54;33.38;;;9.83;;
34035;SDS011;63481;52.588;22.472;2022-10-31T01:59:30;35.68;;;9.48;;
34035;SDS011;63481;52.588;22.472;2022-10-31T02:00:07;68.22;;;10.48;;
34035;SDS011;63481;52.588;22.472;2022-10-31T02:01:19;109.30;;;12.03;;
34035;SDS011;63481;52.588;22.472;2022-10-31T02:01:51;30.88;;;9.00;;
34035;SDS011;63481;52.588;22.472;2022-10-31T02:02:25;29.48;;;9.13;;
34035;SDS011;63481;52.588;22.472;2022-10-31T02:02:59;55.28;;;10.78;;
34035;SDS011;63481;52.588;22.472;2022-10-31T02:03:31;66.20;;;10.98;;
34035;SDS011;63481;52.588;22.472;2022-10-31T02:04:04;39.92;;;10.85;;
34035;SDS011;63481;52.588;22.472;2022-10-31T02:04:38;73.70;;;10.43;;
34035;SDS011;63481;52.588;22.472;2022-10-31T02:05:12;44.90;;;10.28;;
34035;SDS011;63481;52.588;22.472;2022-10-31T02:05:45;55.85;;;11.33;;
34035;SDS011;63481;52.588;22.472;2022-10-31T02:06:24;51.60;;;11.38;;
34035;SDS011;63481;52.588;22.472;2022-10-31T02:07:03;30.55;;;9.73;;
34035;SDS011;63481;52.588;22.472;2022-10-31T02:07:51;75.97;;;11.30;;
34035;SDS011;63481;52.588;22.472;2022-10-31T02:08:32;92.05;;;12.65;;
34035;SDS011;63481;52.588;22.472;2022-10-31T02:09:06;57.90;;;10.93;;
34035;SDS011;63481;52.588;22.472;2022-10-31T02:09:38;100.30;;;12.93;;
34035;SDS011;63481;52.588;22.472;2022-10-31T02:10:12;104.83;;;11.85;;
34035;SDS011;63481;52.588;22.472;2022-10-31T02:10:43;80.83;;;13.08;;
34035;SDS011;63481;52.588;22.472;2022-10-31T02:11:16;106.92;;;12.63;;
34035;SDS011;63481;52.588;22.472;2022-10-31T02:11:48;83.80;;;11.70;;
34035;SDS011;63481;52.588;22.472;2022-10-31T02:12:22;93.17;;;11.97;;
34035;SDS011;63481;52.588;22.472;2022-10-31T02:12:54;80.32;;;11.90;;
34035;SDS011;63481;52.588;22.472;2022-10-31T02:13:29;97.65;;;13.13;;
34035;SDS011;63481;52.588;22.472;2022-10-31T02:14:02;48.45;;;11.53;;
34035;SDS011;63481;52.588;22.472;2022-10-31T02:14:34;32.05;;;11.28;;
34035;SDS011;63481;52.588;22.472;2022-10-31T02:15:08;25.23;;;11.33;;
34035;SDS011;63481;52.588;22.472;2022-10-31T02:15:41;29.35;;;12.28;;
34035;SDS011;63481;52.588;22.472;2022-10-31T02:16:15;22.70;;;12.20;;
34035;SDS011;63481;52.588;22.472;2022-10-31T02:16:48;47.75;;;13.55;;
34035;SDS011;63481;52.588;22.472;2022-10-31T02:17:20;35.73;;;12.65;;
34035;SDS011;63481;52.588;22.472;2022-10-31T02:17:52;50.58;;;12.90;;
34035;SDS011;63481;52.588;22.472;2022-10-31T02:18:25;48.70;;;13.13;;
34035;SDS011;63481;52.588;22.472;2022-10-31T02:18:59;52.50;;;12.93;;
34035;SDS011;63481;52.588;22.472;2022-10-31T02:19:35;67.17;;;13.35;;
34035;SDS011;63481;52.588;22.472;2022-10-31T02:20:22;66.87;;;13.38;;
34035;SDS011;63481;52.588;22.472;2022-10-31T02:21:52;60.48;;;12.95;;
34035;SDS011;63481;52.588;22.472;2022-10-31T02:22:26;59.30;;;13.65;;
34035;SDS011;63481;52.588;22.472;2022-10-31T02:25:17;50.52;;;13.83;;
34035;SDS011;63481;52.588;22.472;2022-10-31T02:26:08;56.95;;;13.80;;
34035;SDS011;63481;52.588;22.472;2022-10-31T02:28:46;55.45;;;16.52;;
34035;SDS011;63481;52.588;22.472;2022-10-31T02:30:20;54.95;;;15.08;;
34035;SDS011;63481;52.588;22.472;2022-10-31T02:33:29;18.32;;;12.45;;
34035;SDS011;63481;52.588;22.472;2022-10-31T02:34:01;23.42;;;13.40;;
34035;SDS011;63481;52.588;22.472;2022-10-31T02:38:04;25.68;;;14.55;;
34035;SDS011;63481;52.588;22.472;2022-10-31T02:40:01;22.40;;;15.48;;
34035;SDS011;63481;52.588;22.472;2022-10-31T02:40:53;20.88;;;13.43;;
34035;SDS011;63481;52.588;22.472;2022-10-31T02:41:51;23.42;;;15.13;;
34035;SDS011;63481;52.588;22.472;2022-10-31T02:42:34;21.27;;;14.75;;
34035;SDS011;63481;52.588;22.472;2022-10-31T02:43:16;19.35;;;14.05;;
34035;SDS011;63481;52.588;22.472;2022-10-31T02:44:51;18.50;;;14.50;;
34035;SDS011;63481;52.588;22.472;2022-10-31T02:45:32;19.15;;;14.45;;
34035;SDS011;63481;52.588;22.472;2022-10-31T02:46:11;17.52;;;13.45;;
34035;SDS011;63481;52.588;22.472;2022-10-31T02:46:45;19.62;;;13.80;;
34035;SDS011;63481;52.588;22.472;2022-10-31T02:47:24;20.35;;;14.50;;
34035;SDS011;63481;52.588;22.472;2022-10-31T02:48:03;20.32;;;14.40;;
34035;SDS011;63481;52.588;22.472;2022-10-31T02:48:37;20.45;;;14.87;;
34035;SDS011;63481;52.588;22.472;2022-10-31T02:49:14;19.35;;;14.73;;
34035;SDS011;63481;52.588;22.472;2022-10-31T02:49:56;21.07;;;15.88;;
34035;SDS011;63481;52.588;22.472;2022-10-31T02:50:33;20.40;;;15.93;;
34035;SDS011;63481;52.588;22.472;2022-10-31T02:51:08;22.77;;;15.10;;
34035;SDS011;63481;52.588;22.472;2022-10-31T02:51:43;19.20;;;15.65;;
34035;SDS011;63481;52.588;22.472;2022-10-31T02:52:51;18.32;;;14.63;;
34035;SDS011;63481;52.588;22.472;2022-10-31T02:53:23;19.98;;;15.25;;
34035;SDS011;63481;52.588;22.472;2022-10-31T02:53:55;20.10;;;15.13;;
34035;SDS011;63481;52.588;22.472;2022-10-31T02:54:27;25.27;;;20.02;;
34035;SDS011;63481;52.588;22.472;2022-10-31T02:56:04;46.45;;;31.70;;
34035;SDS011;63481;52.588;22.472;2022-10-31T02:56:40;23.95;;;16.52;;
34035;SDS011;63481;52.588;22.472;2022-10-31T02:57:12;22.42;;;15.10;;
34035;SDS011;63481;52.588;22.472;2022-10-31T02:57:46;19.52;;;14.23;;
34035;SDS011;63481;52.588;22.472;2022-10-31T02:58:19;19.52;;;13.43;;
34035;SDS011;63481;52.588;22.472;2022-10-31T02:58:54;19.15;;;14.07;;
34035;SDS011;63481;52.588;22.472;2022-10-31T02:59:28;19.20;;;14.23;;
34035;SDS011;63481;52.588;22.472;2022-10-31T03:00:04;20.37;;;13.68;;
34035;SDS011;63481;52.588;22.472;2022-10-31T03:00:41;17.48;;;13.55;;
34035;SDS011;63481;52.588;22.472;2022-10-31T03:01:28;23.40;;;14.93;;
34035;SDS011;63481;52.588;22.472;2022-10-31T03:02:32;45.95;;;30.70;;
34035;SDS011;63481;52.588;22.472;2022-10-31T03:03:14;51.90;;;31.25;;
34035;SDS011;63481;52.588;22.472;2022-10-31T03:05:06;41.00;;;28.05;;
34035;SDS011;63481;52.588;22.472;2022-10-31T03:08:11;26.17;;;19.77;;
34035;SDS011;63481;52.588;22.472;2022-10-31T03:08:42;21.57;;;15.60;;
34035;SDS011;63481;52.588;22.472;2022-10-31T03:11:24;21.35;;;15.58;;
34035;SDS011;63481;52.588;22.472;2022-10-31T03:12:15;23.50;;;15.72;;
34035;SDS011;63481;52.588;22.472;2022-10-31T03:12:52;24.60;;;16.12;;
34035;SDS011;63481;52.588;22.472;2022-10-31T03:13:49;24.00;;;15.80;;
34035;SDS011;63481;52.588;22.472;2022-10-31T03:14:41;23.30;;;15.65;;
34035;SDS011;63481;52.588;22.472;2022-10-31T03:15:22;22.00;;;15.72;;
34035;SDS011;63481;52.588;22.472;2022-10-31T03:16:03;20.25;;;14.65;;
34035;SDS011;63481;52.588;22.472;2022-10-31T03:16:40;23.52;;;15.48;;
34035;SDS011;63481;52.588;22.472;2022-10-31T03:17:21;21.52;;;14.83;;
34035;SDS011;63481;52.588;22.472;2022-10-31T03:18:54;26.33;;;18.07;;
34035;SDS011;63481;52.588;22.472;2022-10-31T03:19:26;28.95;;;21.15;;
34035;SDS011;63481;52.588;22.472;2022-10-31T03:20:04;36.00;;;25.88;;
34035;SDS011;63481;52.588;22.472;2022-10-31T03:20:40;43.08;;;27.50;;
34035;SDS011;63481;52.588;22.472;2022-10-31T03:21:32;42.60;;;29.18;;
34035;SDS011;63481;52.588;22.472;2022-10-31T03:22:15;43.02;;;27.98;;
34035;SDS011;63481;52.588;22.472;2022-10-31T03:22:48;34.67;;;22.30;;
34035;SDS011;63481;52.588;22.472;2022-10-31T03:23:20;34.18;;;22.13;;
34035;SDS011;63481;52.588;22.472;2022-10-31T03:23:54;27.73;;;20.12;;
34035;SDS011;63481;52.588;22.472;2022-10-31T03:24:29;30.10;;;20.23;;
34035;SDS011;63481;52.588;22.472;2022-10-31T03:25:04;30.95;;;21.97;;
34035;SDS011;63481;52.588;22.472;2022-10-31T03:25:39;31.68;;;21.50;;
34035;SDS011;63481;52.588;22.472;2022-10-31T03:26:13;23.83;;;17.62;;
34035;SDS011;63481;52.588;22.472;2022-10-31T03:26:47;24.77;;;18.02;;
34035;SDS011;63481;52.588;22.472;2022-10-31T03:27:23;28.00;;;17.92;;
34035;SDS011;63481;52.588;22.472;2022-10-31T03:27:57;21.05;;;14.90;;
34035;SDS011;63481;52.588;22.472;2022-10-31T03:28:37;20.37;;;14.93;;
34035;SDS011;63481;52.588;22.472;2022-10-31T03:29:15;27.75;;;18.05;;
34035;SDS011;63481;52.588;22.472;2022-10-31T03:29:50;27.30;;;19.07;;
34035;SDS011;63481;52.588;22.472;2022-10-31T03:30:24;28.52;;;19.07;;
34035;SDS011;63481;52.588;22.472;2022-10-31T03:30:58;46.65;;;27.13;;
34035;SDS011;63481;52.588;22.472;2022-10-31T03:31:34;32.53;;;22.77;;
34035;SDS011;63481;52.588;22.472;2022-10-31T03:32:12;35.95;;;23.38;;
34035;SDS011;63481;52.588;22.472;2022-10-31T03:32:49;27.10;;;18.37;;
34035;SDS011;63481;52.588;22.472;2022-10-31T03:33:26;23.00;;;15.60;;
34035;SDS011;63481;52.588;22.472;2022-10-31T03:34:01;19.37;;;13.35;;
34035;SDS011;63481;52.588;22.472;2022-10-31T03:34:36;18.02;;;12.35;;
34035;SDS011;63481;52.588;22.472;2022-10-31T03:35:10;19.07;;;12.75;;
34035;SDS011;63481;52.588;22.472;2022-10-31T03:35:45;16.77;;;11.70;;
34035;SDS011;63481;52.588;22.472;2022-10-31T03:36:19;16.07;;;11.53;;
34035;SDS011;63481;52.588;22.472;2022-10-31T03:36:54;18.60;;;11.50;;
34035;SDS011;63481;52.588;22.472;2022-10-31T03:37:27;18.92;;;10.75;;
34035;SDS011;63481;52.588;22.472;2022-10-31T03:38:02;15.48;;;10.78;;
34035;SDS011;63481;52.588;22.472;2022-10-31T03:38:37;16.02;;;10.75;;
34035;SDS011;63481;52.588;22.472;2022-10-31T03:39:12;13.83;;;10.18;;
34035;SDS011;63481;52.588;22.472;2022-10-31T03:39:47;17.17;;;11.48;;
34035;SDS011;63481;52.588;22.472;2022-10-31T03:40:21;43.17;;;27.75;;
34035;SDS011;63481;52.588;22.472;2022-10-31T03:40:57;41.68;;;26.73;;
34035;SDS011;63481;52.588;22.472;2022-10-31T03:41:32;30.20;;;19.20;;
34035;SDS011;63481;52.588;22.472;2022-10-31T03:42:09;23.20;;;15.90;;
34035;SDS011;63481;52.588;22.472;2022-10-31T03:42:43;22.15;;;13.10;;
34035;SDS011;63481;52.588;22.472;2022-10-31T03:43:19;16.35;;;10.55;;
34035;SDS011;63481;52.588;22.472;2022-10-31T03:43:57;17.10;;;10.28;;
34035;SDS011;63481;52.588;22.472;2022-10-31T03:44:31;24.98;;;14.18;;
34035;SDS011;63481;52.588;22.472;2022-10-31T03:45:45;92.40;;;50.08;;
34035;SDS011;63481;52.588;22.472;2022-10-31T03:46:18;73.42;;;46.65;;
34035;SDS011;63481;52.588;22.472;2022-10-31T03:46:50;77.87;;;46.15;;